createdAt,value
2023-01-29T00:01:37.265Z,77.83
2023-01-29T00:04:06.718Z,78.23
2023-01-29T00:06:35.940Z,78.60
2023-01-29T00:09:05.305Z,78.83
2023-01-29T00:11:35.599Z,79.14
2023-01-29T00:14:04.842Z,79.02
2023-01-29T00:16:34.084Z,79.08
2023-01-29T00:19:03.578Z,79.01
2023-01-29T00:21:32.965Z,79.10
2023-01-29T00:24:02.289Z,79.42
2023-01-29T00:26:31.993Z,79.57
2023-01-29T00:29:02.495Z,79.35
2023-01-29T00:31:32.555Z,79.27
2023-01-29T00:34:04.051Z,79.09
2023-01-29T00:36:33.652Z,79.74
2023-01-29T00:39:11.341Z,79.71
2023-01-29T00:41:59.979Z,79.80
2023-01-29T00:44:49.279Z,80.31
2023-01-29T00:47:36.940Z,79.91
2023-01-29T00:50:08.039Z,80.30
2023-01-29T00:52:37.665Z,80.37
2023-01-29T00:55:08.882Z,80.55
2023-01-29T00:57:39.145Z,80.34
2023-01-29T01:00:11.212Z,80.34
2023-01-29T01:03:00.315Z,80.30
2023-01-29T01:05:30.525Z,80.49
2023-01-29T01:08:00.382Z,80.13
2023-01-29T01:10:31.120Z,80.44
2023-01-29T01:13:02.056Z,80.39
2023-01-29T01:15:34.551Z,80.46
2023-01-29T01:18:04.862Z,80.33
2023-01-29T01:20:35.842Z,80.28
2023-01-29T01:23:05.638Z,81.22
2023-01-29T01:25:34.736Z,80.90
2023-01-29T01:28:03.935Z,80.90
2023-01-29T01:30:33.482Z,80.98
2023-01-29T01:33:03.266Z,81.38
2023-01-29T01:35:33.348Z,80.95
2023-01-29T01:38:01.791Z,81.18
2023-01-29T01:40:31.191Z,80.90
2023-01-29T01:43:02.599Z,80.95
2023-01-29T01:45:33.669Z,80.77
2023-01-29T01:48:14.053Z,80.65
2023-01-29T01:50:49.164Z,81.26
2023-01-29T01:53:23.119Z,81.03
2023-01-29T01:56:04.471Z,80.96
2023-01-29T01:58:52.401Z,80.93
2023-01-29T02:01:28.228Z,80.94
2023-01-29T02:04:30.990Z,80.26
2023-01-29T02:07:21.503Z,80.53
2023-01-29T02:10:11.966Z,80.60
2023-01-29T02:12:41.635Z,80.56
2023-01-29T02:15:11.953Z,80.65
2023-01-29T02:17:42.154Z,80.54
2023-01-29T02:20:17.484Z,80.20
2023-01-29T02:22:56.535Z,80.18
2023-01-29T02:25:47.469Z,80.34
2023-01-29T02:28:28.115Z,80.23
2023-01-29T02:31:18.091Z,80.17
2023-01-29T02:33:50.494Z,80.17
2023-01-29T02:36:38.666Z,80.02
2023-01-29T02:39:08.094Z,80.12
2023-01-29T02:41:56.570Z,80.06
2023-01-29T02:44:31.404Z,80.26
2023-01-29T02:47:05.835Z,79.96
2023-01-29T02:49:50.450Z,79.82
2023-01-29T02:52:22.057Z,79.37
2023-01-29T02:54:57.281Z,79.42
2023-01-29T02:57:31.717Z,79.69
2023-01-29T03:00:22.466Z,79.36
2023-01-29T03:03:01.482Z,79.51
2023-01-29T03:05:51.593Z,79.60
2023-01-29T03:08:37.555Z,79.49
2023-01-29T03:11:07.572Z,79.60
2023-01-29T03:13:57.420Z,79.38
2023-01-29T03:16:32.054Z,79.32
2023-01-29T03:19:04.143Z,79.44
2023-01-29T03:21:58.631Z,79.52
2023-01-29T03:25:06.004Z,79.57
2023-01-29T03:28:15.649Z,79.55
2023-01-29T03:31:12.342Z,79.84
2023-01-29T03:33:51.642Z,79.55
2023-01-29T03:36:58.852Z,79.80
2023-01-29T03:39:29.606Z,79.78
2023-01-29T03:42:19.604Z,79.89
2023-01-29T03:44:54.457Z,80.00
2023-01-29T03:47:35.714Z,79.68
2023-01-29T03:50:16.846Z,79.71
2023-01-29T03:52:53.051Z,79.61
2023-01-29T03:55:25.274Z,79.70
2023-01-29T03:57:57.222Z,79.38
2023-01-29T04:00:32.800Z,79.24
2023-01-29T04:03:23.200Z,79.41
2023-01-29T04:06:06.404Z,79.45
2023-01-29T04:08:46.432Z,79.58
2023-01-29T04:11:17.643Z,79.11
2023-01-29T04:13:47.765Z,79.18
2023-01-29T04:16:30.188Z,79.25
2023-01-29T04:19:15.658Z,79.12
2023-01-29T04:21:47.852Z,79.27
2023-01-29T04:24:19.216Z,78.97
2023-01-29T04:27:13.987Z,79.27
2023-01-29T04:29:54.818Z,79.06
2023-01-29T04:32:27.131Z,79.12
2023-01-29T04:35:13.686Z,78.75
2023-01-29T04:38:05.654Z,78.98
2023-01-29T04:40:53.865Z,79.08
2023-01-29T04:43:29.641Z,79.27
2023-01-29T04:46:02.013Z,79.06
2023-01-29T04:48:37.071Z,79.03
2023-01-29T04:51:13.768Z,78.85
2023-01-29T04:53:53.449Z,78.71
2023-01-29T04:56:30.082Z,78.92
2023-01-29T04:59:02.236Z,78.93
2023-01-29T05:01:33.805Z,78.85
2023-01-29T05:04:05.750Z,78.97
2023-01-29T05:06:35.869Z,78.88
2023-01-29T05:09:05.443Z,78.89
2023-01-29T05:11:36.376Z,79.14
2023-01-29T05:14:08.361Z,78.93
2023-01-29T05:16:43.095Z,79.19
2023-01-29T05:19:14.088Z,78.85
2023-01-29T05:21:44.537Z,79.19
2023-01-29T05:24:18.392Z,79.04
2023-01-29T05:27:08.458Z,78.87
2023-01-29T05:29:38.862Z,78.61
2023-01-29T05:32:07.395Z,78.60
2023-01-29T05:34:36.855Z,78.51
2023-01-29T05:37:06.788Z,78.60
2023-01-29T05:39:36.268Z,78.26
2023-01-29T05:42:05.580Z,78.60
2023-01-29T05:44:35.271Z,78.46
2023-01-29T05:47:04.413Z,78.44
2023-01-29T05:49:34.102Z,79.08
2023-01-29T05:52:03.461Z,78.48
2023-01-29T05:54:32.556Z,78.53
2023-01-29T05:57:01.698Z,78.20
2023-01-29T05:59:31.693Z,77.58
2023-01-29T06:02:00.911Z,77.20
2023-01-29T06:04:30.708Z,77.19
2023-01-29T06:06:59.920Z,77.59
2023-01-29T06:09:29.433Z,76.99
2023-01-29T06:11:58.549Z,77.12
2023-01-29T06:14:27.781Z,77.19
2023-01-29T06:16:57.040Z,77.33
2023-01-29T06:19:26.202Z,77.26
2023-01-29T06:21:55.314Z,77.36
2023-01-29T06:24:23.956Z,77.65
2023-01-29T06:26:52.845Z,77.72
2023-01-29T06:29:22.366Z,77.60
2023-01-29T06:31:52.077Z,77.58
2023-01-29T06:34:21.708Z,77.53
2023-01-29T06:36:51.365Z,77.41
2023-01-29T06:39:20.786Z,77.27
2023-01-29T06:41:50.279Z,77.53
2023-01-29T06:44:19.852Z,77.72
2023-01-29T06:46:51.319Z,78.04
2023-01-29T06:49:20.657Z,77.87
2023-01-29T06:51:50.185Z,77.84
2023-01-29T06:54:19.857Z,77.72
2023-01-29T06:56:49.165Z,78.03
2023-01-29T06:59:19.176Z,77.74
2023-01-29T07:01:48.830Z,77.64
2023-01-29T07:04:18.448Z,77.79
2023-01-29T07:06:47.761Z,78.08
2023-01-29T07:09:17.334Z,78.07
2023-01-29T07:11:46.638Z,77.84
2023-01-29T07:14:16.140Z,77.06
2023-01-29T07:16:44.941Z,76.25
2023-01-29T07:19:14.629Z,75.78
2023-01-29T07:21:43.865Z,75.39
2023-01-29T07:24:13.433Z,74.70
2023-01-29T07:26:43.058Z,74.91
2023-01-29T07:29:12.742Z,75.19
2023-01-29T07:31:41.187Z,74.94
2023-01-29T07:34:10.869Z,74.46
2023-01-29T07:36:40.423Z,73.86
2023-01-29T07:39:09.541Z,73.53
2023-01-29T07:41:39.207Z,72.74
2023-01-29T07:44:18.498Z,72.65
2023-01-29T07:46:48.001Z,72.29
2023-01-29T07:49:17.463Z,72.12
2023-01-29T07:51:47.037Z,72.47
2023-01-29T07:54:16.187Z,72.55
2023-01-29T07:56:45.980Z,72.22
2023-01-29T07:59:15.355Z,71.71
2023-01-29T08:01:44.773Z,71.91
2023-01-29T08:04:14.131Z,72.27
2023-01-29T08:06:43.393Z,72.39
2023-01-29T08:09:12.535Z,71.11
2023-01-29T08:11:42.293Z,70.31
2023-01-29T08:14:13.423Z,70.71
2023-01-29T08:16:44.473Z,69.76
2023-01-29T08:19:14.319Z,69.11
2023-01-29T08:21:43.961Z,69.23
2023-01-29T08:24:13.423Z,69.64
2023-01-29T08:26:41.875Z,68.73
2023-01-29T08:29:11.417Z,68.32
2023-01-29T08:31:41.360Z,68.69
2023-01-29T08:34:11.378Z,69.47
2023-01-29T08:36:40.933Z,69.06
2023-01-29T08:39:12.087Z,69.21
2023-01-29T08:41:41.997Z,68.72
2023-01-29T08:44:11.551Z,69.13
2023-01-29T08:46:41.230Z,70.17
2023-01-29T08:49:10.435Z,69.98
2023-01-29T08:51:39.902Z,69.83
2023-01-29T08:54:09.521Z,69.40
2023-01-29T08:56:38.744Z,69.44
2023-01-29T08:59:10.864Z,69.87
2023-01-29T09:01:39.351Z,69.93
2023-01-29T09:04:13.365Z,69.69
2023-01-29T09:06:42.938Z,69.34
2023-01-29T09:09:12.595Z,68.58
2023-01-29T09:11:41.440Z,69.01
2023-01-29T09:14:12.815Z,68.94
2023-01-29T09:16:42.354Z,68.65
2023-01-29T09:19:12.009Z,69.15
2023-01-29T09:21:41.200Z,68.81
2023-01-29T09:24:40.623Z,68.79
2023-01-29T09:27:10.723Z,69.25
2023-01-29T09:29:39.299Z,68.71
2023-01-29T09:32:08.542Z,68.68
2023-01-29T09:34:37.780Z,68.85
2023-01-29T09:37:07.092Z,68.44
2023-01-29T09:39:36.528Z,68.59
2023-01-29T09:42:25.139Z,68.68
2023-01-29T09:45:00.736Z,68.97
2023-01-29T09:47:32.542Z,69.51
2023-01-29T09:50:02.234Z,68.70
2023-01-29T09:52:38.765Z,68.91
2023-01-29T09:55:20.638Z,68.78
2023-01-29T09:57:55.328Z,68.71
2023-01-29T10:00:26.221Z,68.55
2023-01-29T10:03:03.021Z,68.94
2023-01-29T10:05:53.039Z,68.38
2023-01-29T10:08:22.221Z,68.47
2023-01-29T10:10:56.772Z,68.75
2023-01-29T10:13:44.364Z,68.72
2023-01-29T10:16:40.111Z,69.12
2023-01-29T10:19:32.638Z,69.36
2023-01-29T10:22:33.655Z,68.73
2023-01-29T10:25:12.616Z,69.21
2023-01-29T10:27:45.444Z,69.35
2023-01-29T10:30:22.371Z,69.08
2023-01-29T10:32:53.605Z,69.74
2023-01-29T10:35:42.009Z,69.58
2023-01-29T10:38:20.112Z,68.96
2023-01-29T10:41:04.018Z,69.03
2023-01-29T10:43:44.606Z,69.09
2023-01-29T10:46:26.358Z,69.01
2023-01-29T10:49:01.435Z,68.55
2023-01-29T10:51:47.545Z,68.04
2023-01-29T10:54:17.800Z,68.98
2023-01-29T10:56:58.789Z,69.23
2023-01-29T10:59:41.965Z,69.09
2023-01-29T11:02:16.539Z,68.71
2023-01-29T11:04:48.174Z,69.00
2023-01-29T11:07:19.018Z,69.66
2023-01-29T11:10:08.808Z,69.94
2023-01-29T11:12:39.471Z,69.88
2023-01-29T11:15:18.893Z,70.56
2023-01-29T11:18:06.001Z,70.79
2023-01-29T11:20:35.282Z,70.75
2023-01-29T11:23:06.712Z,70.84
2023-01-29T11:25:37.143Z,70.94
2023-01-29T11:28:06.821Z,71.28
2023-01-29T11:30:40.192Z,71.23
2023-01-29T11:33:15.757Z,70.96
2023-01-29T11:35:45.918Z,71.32
2023-01-29T11:38:19.995Z,71.20
2023-01-29T11:40:51.521Z,70.94
2023-01-29T11:43:21.911Z,71.02
2023-01-29T11:45:52.540Z,70.77
2023-01-29T11:48:23.179Z,70.82
2023-01-29T11:50:54.005Z,70.88
2023-01-29T11:53:35.501Z,70.98
2023-01-29T11:56:07.496Z,70.99
2023-01-29T11:58:37.158Z,71.09
2023-01-29T12:01:06.107Z,71.30
2023-01-29T12:03:44.468Z,70.63
2023-01-29T12:06:22.314Z,70.83
2023-01-29T12:09:00.345Z,70.24
2023-01-29T12:11:31.680Z,70.27
2023-01-29T12:14:02.587Z,70.22
2023-01-29T12:16:37.381Z,70.30
2023-01-29T12:19:25.767Z,69.91
2023-01-29T12:22:12.158Z,69.83
2023-01-29T12:24:50.952Z,69.69
2023-01-29T12:27:25.819Z,70.06
2023-01-29T12:30:05.208Z,70.16
2023-01-29T12:32:40.551Z,70.33
2023-01-29T12:35:28.680Z,70.24
2023-01-29T12:37:58.755Z,70.10
2023-01-29T12:40:32.957Z,70.57
2023-01-29T12:43:07.520Z,70.24
2023-01-29T12:45:37.158Z,70.50
2023-01-29T12:48:08.867Z,70.18
2023-01-29T12:50:39.017Z,70.13
2023-01-29T12:53:10.571Z,69.93
2023-01-29T12:55:48.354Z,70.27
2023-01-29T12:58:22.268Z,70.39
2023-01-29T13:00:57.404Z,70.77
2023-01-29T13:03:32.497Z,70.80
2023-01-29T13:06:10.137Z,70.92
2023-01-29T13:08:39.624Z,70.93
2023-01-29T13:11:16.936Z,70.95
2023-01-29T13:13:54.358Z,70.81
2023-01-29T13:16:28.568Z,71.04
2023-01-29T13:19:05.133Z,71.55
2023-01-29T13:21:41.067Z,71.73
2023-01-29T13:24:15.841Z,71.29
2023-01-29T13:26:49.149Z,71.05
2023-01-29T13:29:26.184Z,70.68
2023-01-29T13:31:56.383Z,70.52
2023-01-29T13:34:28.772Z,70.54
2023-01-29T13:37:04.803Z,70.17
2023-01-29T13:39:37.869Z,69.86
2023-01-29T13:42:17.017Z,70.35
2023-01-29T13:44:50.757Z,70.39
2023-01-29T13:47:26.416Z,70.24
2023-01-29T13:49:56.891Z,70.71
2023-01-29T13:52:35.889Z,70.80
2023-01-29T13:55:17.108Z,70.34
2023-01-29T13:57:49.380Z,70.59
2023-01-29T14:00:31.462Z,70.83
2023-01-29T14:03:01.074Z,71.04
2023-01-29T14:05:31.587Z,70.91
2023-01-29T14:08:02.463Z,71.13
2023-01-29T14:10:32.780Z,71.53
2023-01-29T14:13:05.100Z,71.24
2023-01-29T14:15:37.149Z,71.04
2023-01-29T14:18:09.614Z,71.07
2023-01-29T14:20:52.006Z,71.29
2023-01-29T14:23:42.284Z,71.50
2023-01-29T14:26:30.606Z,71.49
2023-01-29T14:29:02.012Z,71.75
2023-01-29T14:31:42.576Z,71.79
2023-01-29T14:34:33.582Z,71.69
2023-01-29T14:37:19.176Z,71.61
2023-01-29T14:39:58.728Z,71.73
2023-01-29T14:42:30.225Z,72.07
2023-01-29T14:45:09.630Z,71.81
2023-01-29T14:47:39.398Z,71.84
2023-01-29T14:50:27.438Z,71.99
2023-01-29T14:53:11.709Z,71.97
2023-01-29T14:55:46.925Z,71.70
2023-01-29T14:58:24.224Z,71.75
2023-01-29T15:00:55.130Z,71.81
2023-01-29T15:03:44.991Z,72.10
2023-01-29T15:06:24.322Z,71.89
2023-01-29T15:09:01.067Z,72.01
2023-01-29T15:11:38.008Z,72.09
2023-01-29T15:14:14.157Z,71.87
2023-01-29T15:16:43.830Z,72.30
2023-01-29T15:19:16.890Z,72.37
2023-01-29T15:22:05.539Z,71.98
2023-01-29T15:24:35.944Z,72.04
2023-01-29T15:27:07.662Z,71.88
2023-01-29T15:29:38.616Z,71.97
2023-01-29T15:32:08.668Z,71.97
2023-01-29T15:34:43.127Z,72.05
2023-01-29T15:37:33.174Z,72.08
2023-01-29T15:40:05.568Z,72.14
2023-01-29T15:42:48.969Z,72.40
2023-01-29T15:45:28.030Z,72.38
2023-01-29T15:48:00.758Z,72.08
2023-01-29T15:50:30.203Z,71.86
2023-01-29T15:53:00.653Z,72.20
2023-01-29T15:55:33.368Z,72.21
2023-01-29T15:58:02.935Z,72.22
2023-01-29T16:00:32.229Z,72.23
2023-01-29T16:03:13.666Z,71.95
2023-01-29T16:05:42.891Z,71.83
2023-01-29T16:08:14.755Z,72.03
2023-01-29T16:10:45.715Z,72.22
2023-01-29T16:13:20.938Z,72.13
2023-01-29T16:15:58.772Z,72.18
2023-01-29T16:18:36.458Z,72.21
2023-01-29T16:21:09.390Z,72.19
2023-01-29T16:23:45.236Z,72.17
2023-01-29T16:26:20.515Z,72.21
2023-01-29T16:28:49.909Z,72.41
2023-01-29T16:31:24.528Z,72.24
2023-01-29T16:33:57.244Z,72.18
2023-01-29T16:36:28.141Z,72.27
2023-01-29T16:38:56.618Z,72.19
2023-01-29T16:41:25.837Z,71.85
2023-01-29T16:43:59.815Z,71.90
2023-01-29T16:46:39.131Z,72.01
2023-01-29T16:49:40.604Z,72.17
2023-01-29T16:52:39.704Z,71.55
2023-01-29T16:55:27.307Z,72.05
2023-01-29T16:57:57.025Z,71.80
2023-01-29T17:00:28.036Z,71.88
2023-01-29T17:03:07.255Z,72.03
2023-01-29T17:05:38.179Z,72.09
2023-01-29T17:08:08.323Z,72.02
2023-01-29T17:10:38.031Z,71.57
2023-01-29T17:13:09.712Z,71.58
2023-01-29T17:15:46.439Z,72.15
2023-01-29T17:18:25.475Z,72.21
2023-01-29T17:20:56.888Z,72.15
2023-01-29T17:23:26.413Z,72.04
2023-01-29T17:25:55.807Z,72.15
2023-01-29T17:28:25.509Z,72.09
2023-01-29T17:31:05.905Z,72.43
2023-01-29T17:33:40.125Z,72.36
2023-01-29T17:36:14.058Z,72.54
2023-01-29T17:38:43.743Z,72.53
2023-01-29T17:41:16.614Z,72.60
2023-01-29T17:43:49.054Z,72.78
2023-01-29T17:46:20.457Z,73.05
2023-01-29T17:48:49.960Z,73.09
2023-01-29T17:51:19.546Z,73.02
2023-01-29T17:53:48.966Z,73.04
2023-01-29T17:56:21.118Z,73.10
2023-01-29T17:58:52.350Z,73.11
2023-01-29T18:01:22.061Z,73.25
2023-01-29T18:03:51.336Z,73.14
2023-01-29T18:06:27.541Z,73.19
2023-01-29T18:09:01.764Z,73.21
2023-01-29T18:11:31.040Z,73.13
2023-01-29T18:14:05.194Z,73.56
2023-01-29T18:16:45.061Z,73.18
2023-01-29T18:19:15.900Z,73.23
2023-01-29T18:21:45.612Z,73.02
2023-01-29T18:24:15.316Z,73.18
2023-01-29T18:26:45.083Z,72.96
2023-01-29T18:29:14.839Z,73.16
2023-01-29T18:31:44.527Z,72.96
2023-01-29T18:34:14.009Z,73.40
2023-01-29T18:36:48.481Z,73.43
2023-01-29T18:39:18.277Z,73.32
2023-01-29T18:41:47.989Z,73.44
2023-01-29T18:44:17.743Z,73.24
2023-01-29T18:46:46.902Z,73.13
2023-01-29T18:49:16.422Z,73.18
2023-01-29T18:51:45.945Z,73.35
2023-01-29T18:54:15.640Z,73.17
2023-01-29T18:57:08.700Z,72.98
2023-01-29T18:59:34.858Z,72.95
2023-01-29T19:02:04.335Z,73.15
2023-01-29T19:04:33.743Z,72.81
2023-01-29T19:07:04.928Z,72.74
2023-01-29T19:09:34.079Z,72.14
2023-01-29T19:12:03.395Z,72.12
2023-01-29T19:14:32.671Z,71.42
2023-01-29T19:17:04.996Z,71.08
2023-01-29T19:19:34.156Z,71.37
2023-01-29T19:22:03.943Z,71.17
2023-01-29T19:24:39.589Z,71.00
2023-01-29T19:27:08.874Z,70.35
2023-01-29T19:29:37.959Z,70.54
2023-01-29T19:32:09.259Z,70.36
2023-01-29T19:34:38.556Z,69.97
2023-01-29T19:37:06.996Z,70.34
2023-01-29T19:39:36.326Z,70.36
2023-01-29T19:42:05.547Z,69.95
2023-01-29T19:44:35.504Z,70.38
2023-01-29T19:47:05.367Z,70.83
2023-01-29T19:49:35.003Z,71.38
2023-01-29T19:52:04.144Z,71.28
2023-01-29T19:54:33.312Z,71.49
2023-01-29T19:57:03.049Z,71.51
2023-01-29T19:59:32.320Z,71.43
2023-01-29T20:02:01.791Z,71.32
2023-01-29T20:04:31.211Z,71.44
2023-01-29T20:07:00.736Z,71.05
2023-01-29T20:09:32.211Z,70.96
2023-01-29T20:12:01.496Z,70.93
2023-01-29T20:14:30.964Z,70.76
2023-01-29T20:17:00.526Z,70.78
2023-01-29T20:19:31.961Z,70.63
2023-01-29T20:22:01.499Z,70.22
2023-01-29T20:24:32.537Z,70.19
2023-01-29T20:27:03.415Z,70.06
2023-01-29T20:29:32.753Z,70.04
2023-01-29T20:32:02.790Z,70.03
2023-01-29T20:34:32.430Z,69.84
2023-01-29T20:37:01.935Z,69.84
2023-01-29T20:39:31.306Z,69.28
2023-01-29T20:42:00.968Z,68.50
2023-01-29T20:44:32.443Z,68.39
2023-01-29T20:47:02.992Z,68.29
2023-01-29T20:49:31.463Z,68.27
2023-01-29T20:52:01.123Z,68.27
2023-01-29T20:54:33.539Z,68.01
2023-01-29T20:57:02.759Z,68.05
2023-01-29T20:59:34.166Z,67.89
2023-01-29T21:02:02.700Z,67.14
2023-01-29T21:04:32.532Z,67.21
2023-01-29T21:07:04.513Z,67.45
2023-01-29T21:09:34.107Z,67.78
2023-01-29T21:12:05.806Z,67.74
2023-01-29T21:14:35.289Z,67.61
2023-01-29T21:17:05.449Z,67.84
2023-01-29T21:19:35.307Z,68.08
2023-01-29T21:22:05.012Z,67.92
2023-01-29T21:24:34.572Z,67.85
2023-01-29T21:27:04.177Z,67.77
2023-01-29T21:29:34.831Z,67.23
2023-01-29T21:32:04.859Z,67.49
2023-01-29T21:34:34.683Z,67.45
2023-01-29T21:37:04.165Z,67.15
2023-01-29T21:39:33.702Z,67.32
2023-01-29T21:42:22.740Z,67.57
2023-01-29T21:44:52.367Z,67.34
2023-01-29T21:47:22.719Z,67.29
2023-01-29T21:49:56.117Z,67.02
2023-01-29T21:52:25.217Z,67.34
2023-01-29T21:54:54.733Z,67.42
2023-01-29T21:57:27.126Z,67.25
2023-01-29T21:59:58.175Z,67.11
2023-01-29T22:02:31.284Z,67.40
2023-01-29T22:05:18.697Z,67.40
2023-01-29T22:07:49.800Z,67.40
2023-01-29T22:10:19.888Z,67.23
2023-01-29T22:12:49.576Z,67.57
2023-01-29T22:15:23.265Z,67.61
2023-01-29T22:17:53.005Z,67.21
2023-01-29T22:20:30.374Z,67.51
2023-01-29T22:23:02.279Z,67.28
2023-01-29T22:25:32.664Z,67.08
2023-01-29T22:28:02.354Z,66.71
2023-01-29T22:30:31.386Z,67.23
2023-01-29T22:33:00.831Z,66.92
2023-01-29T22:35:30.030Z,66.92
2023-01-29T22:37:59.269Z,66.64
2023-01-29T22:40:27.855Z,66.55
2023-01-29T22:42:59.265Z,66.75
2023-01-29T22:45:28.313Z,66.89
2023-01-29T22:47:59.506Z,67.36
2023-01-29T22:50:27.923Z,67.21
2023-01-29T22:52:57.133Z,67.32
2023-01-29T22:55:26.684Z,67.36
2023-01-29T22:57:58.038Z,67.43
2023-01-29T23:00:27.230Z,67.69
2023-01-29T23:02:57.003Z,67.52
2023-01-29T23:05:26.568Z,67.41
2023-01-29T23:07:56.277Z,67.43
2023-01-29T23:10:25.693Z,67.31
2023-01-29T23:12:55.028Z,67.25
2023-01-29T23:15:24.109Z,67.32
2023-01-29T23:17:53.299Z,67.68
2023-01-29T23:20:22.196Z,67.92
2023-01-29T23:22:54.039Z,67.73
2023-01-29T23:25:23.310Z,67.82
2023-01-29T23:27:52.580Z,67.73
2023-01-29T23:30:21.758Z,67.97
2023-01-29T23:32:50.461Z,67.91
2023-01-29T23:35:19.544Z,67.79
2023-01-29T23:37:48.585Z,68.03
2023-01-29T23:40:18.152Z,67.82
2023-01-29T23:42:48.567Z,67.93
2023-01-29T23:45:17.846Z,67.63
2023-01-29T23:47:46.913Z,67.75
2023-01-29T23:50:16.403Z,67.57
2023-01-29T23:52:45.769Z,67.66
2023-01-29T23:55:14.963Z,67.27
2023-01-29T23:57:44.143Z,67.60
